createdAt,value
2019-01-31T00:01:46.102Z,101440.59
2019-01-31T00:04:30.957Z,101439.32
2019-01-31T00:07:26.031Z,101435.07
2019-01-31T00:10:15.192Z,101433.19
2019-01-31T00:12:47.907Z,101423.86
2019-01-31T00:15:35.785Z,101426.55
2019-01-31T00:18:17.156Z,101425.02
2019-01-31T00:20:52.875Z,101428.25
2019-01-31T00:23:37.554Z,101433.11
2019-01-31T00:26:07.307Z,101421.61
2019-01-31T00:28:56.353Z,101429.95
2019-01-31T00:31:50.296Z,101423.14
2019-01-31T00:34:36.643Z,101423.80
2019-01-31T00:37:12.007Z,101424.05
2019-01-31T00:40:02.836Z,101425.19
2019-01-31T00:42:41.582Z,101422.88
2019-01-31T00:45:17.148Z,101418.48
2019-01-31T00:47:46.912Z,101426.39
2019-01-31T00:50:16.643Z,101414.59
2019-01-31T00:52:46.633Z,101416.03
2019-01-31T00:55:22.498Z,101423.44
2019-01-31T00:58:07.361Z,101422.91
2019-01-31T01:00:42.895Z,101425.62
2019-01-31T01:03:15.357Z,101429.31
2019-01-31T01:05:57.245Z,101425.63
2019-01-31T01:08:28.169Z,101424.98
2019-01-31T01:11:09.978Z,101417.55
2019-01-31T01:13:45.462Z,101422.17
2019-01-31T01:16:24.056Z,101416.02
2019-01-31T01:18:56.729Z,101425.23
2019-01-31T01:21:32.247Z,101433.45
2019-01-31T01:24:01.988Z,101430.24
2019-01-31T01:26:55.991Z,101430.48
2019-01-31T01:29:31.440Z,101428.16
2019-01-31T01:32:03.758Z,101427.49
2019-01-31T01:34:45.355Z,101431.48
2019-01-31T01:37:31.349Z,101433.78
2019-01-31T01:40:01.250Z,101438.27
2019-01-31T01:42:42.864Z,101436.33
2019-01-31T01:45:14.540Z,101436.98
2019-01-31T01:47:44.273Z,101441.37
2019-01-31T01:50:18.177Z,101432.64
2019-01-31T01:53:06.116Z,101435.35
2019-01-31T01:55:38.368Z,101436.86
2019-01-31T01:58:18.486Z,101433.56
2019-01-31T02:01:07.620Z,101433.25
2019-01-31T02:03:46.161Z,101434.67
2019-01-31T02:06:44.850Z,101436.84
2019-01-31T02:09:33.657Z,101435.64
2019-01-31T02:12:06.192Z,101439.95
2019-01-31T02:14:47.990Z,101432.34
2019-01-31T02:17:23.093Z,101434.59
2019-01-31T02:20:19.847Z,101432.17
2019-01-31T02:22:58.455Z,101433.68
2019-01-31T02:25:28.189Z,101426.69
2019-01-31T02:28:23.817Z,101425.91
2019-01-31T02:30:56.084Z,101420.92
2019-01-31T02:33:25.810Z,101426.34
2019-01-31T02:36:10.442Z,101420.47
2019-01-31T02:38:40.264Z,101427.03
2019-01-31T02:41:21.983Z,101425.97
2019-01-31T02:44:09.993Z,101426.54
2019-01-31T02:46:39.720Z,101417.64
2019-01-31T02:49:32.138Z,101430.45
2019-01-31T02:52:14.030Z,101431.31
2019-01-31T02:54:55.346Z,101437.79
2019-01-31T02:57:31.194Z,101441.78
2019-01-31T03:00:18.939Z,101435.52
2019-01-31T03:03:09.656Z,101445.12
2019-01-31T03:05:42.362Z,101445.73
2019-01-31T03:08:20.900Z,101440.76
2019-01-31T03:10:50.629Z,101437.37
2019-01-31T03:13:20.354Z,101434.42
2019-01-31T03:16:14.380Z,101440.11
2019-01-31T03:18:52.533Z,101439.77
2019-01-31T03:21:27.639Z,101443.61
2019-01-31T03:24:00.200Z,101449.70
2019-01-31T03:26:32.789Z,101455.64
2019-01-31T03:29:19.161Z,101466.28
2019-01-31T03:31:56.023Z,101464.05
2019-01-31T03:34:34.520Z,101470.38
2019-01-31T03:37:16.154Z,101462.22
2019-01-31T03:40:06.606Z,101462.69
2019-01-31T03:42:53.525Z,101456.78
2019-01-31T03:45:29.062Z,101454.67
2019-01-31T03:48:27.575Z,101466.28
2019-01-31T03:51:00.070Z,101465.33
2019-01-31T03:53:38.772Z,101473.09
2019-01-31T03:56:23.541Z,101464.61
2019-01-31T03:59:02.306Z,101469.45
2019-01-31T04:01:37.900Z,101470.95
2019-01-31T04:04:10.188Z,101477.94
2019-01-31T04:06:36.205Z,101474.66
2019-01-31T04:09:05.632Z,101470.49
2019-01-31T04:11:31.564Z,101467.86
2019-01-31T04:13:57.607Z,101459.81
2019-01-31T04:16:23.727Z,101467.19
2019-01-31T04:18:49.720Z,101465.97
2019-01-31T04:21:15.968Z,101469.56
2019-01-31T04:23:42.048Z,101459.31
2019-01-31T04:26:08.455Z,101459.84
2019-01-31T04:28:34.600Z,101468.50
2019-01-31T04:31:00.641Z,101461.69
2019-01-31T04:33:26.767Z,101465.19
2019-01-31T04:35:55.314Z,101469.98
2019-01-31T04:38:21.332Z,101472.55
2019-01-31T04:40:47.255Z,101465.39
2019-01-31T04:43:13.134Z,101464.25
2019-01-31T04:45:39.066Z,101463.53
2019-01-31T04:48:05.209Z,101465.42
2019-01-31T04:50:31.247Z,101470.23
2019-01-31T04:52:57.293Z,101469.80
2019-01-31T04:55:23.327Z,101472.72
2019-01-31T04:57:49.588Z,101467.84
2019-01-31T05:00:16.834Z,101465.73
2019-01-31T05:02:42.870Z,101465.42
2019-01-31T05:05:09.296Z,101472.72
2019-01-31T05:07:35.402Z,101464.13
2019-01-31T05:10:01.739Z,101474.00
2019-01-31T05:12:27.675Z,101471.15
2019-01-31T05:14:53.833Z,101472.11
2019-01-31T05:17:19.961Z,101470.97
2019-01-31T05:19:45.957Z,101464.22
2019-01-31T05:22:11.905Z,101472.45
2019-01-31T05:24:37.839Z,101470.38
2019-01-31T05:27:04.436Z,101482.53
2019-01-31T05:29:31.252Z,101479.57
2019-01-31T05:31:57.352Z,101498.82
2019-01-31T05:34:23.366Z,101497.61
2019-01-31T05:36:49.420Z,101500.63
2019-01-31T05:39:15.384Z,101499.35
2019-01-31T05:41:41.276Z,101496.78
2019-01-31T05:44:07.388Z,101497.67
2019-01-31T05:46:33.467Z,101497.25
2019-01-31T05:48:59.466Z,101500.70
2019-01-31T05:51:25.409Z,101508.08
2019-01-31T05:53:51.632Z,101505.16
2019-01-31T05:56:17.765Z,101497.20
2019-01-31T05:58:44.236Z,101499.97
2019-01-31T06:01:10.356Z,101499.64
2019-01-31T06:03:36.458Z,101500.17
2019-01-31T06:06:02.713Z,101516.60
2019-01-31T06:08:28.641Z,101514.17
2019-01-31T06:10:54.551Z,101518.55
2019-01-31T06:13:20.502Z,101521.26
2019-01-31T06:15:46.441Z,101514.97
2019-01-31T06:18:12.406Z,101521.20
2019-01-31T06:20:38.512Z,101519.16
2019-01-31T06:23:04.519Z,101512.48
2019-01-31T06:25:30.507Z,101519.10
2019-01-31T06:27:56.427Z,101515.71
2019-01-31T06:30:22.476Z,101522.76
2019-01-31T06:32:48.570Z,101518.97
2019-01-31T06:35:14.672Z,101522.13
2019-01-31T06:37:40.859Z,101517.56
2019-01-31T06:40:10.198Z,101534.03
2019-01-31T06:42:36.306Z,101526.38
2019-01-31T06:45:05.454Z,101527.02
2019-01-31T06:47:31.513Z,101524.97
2019-01-31T06:49:57.425Z,101523.35
2019-01-31T06:52:23.347Z,101528.19
2019-01-31T06:54:49.313Z,101535.97
2019-01-31T06:57:15.330Z,101538.14
2019-01-31T06:59:41.610Z,101537.34
2019-01-31T07:02:07.631Z,101537.02
2019-01-31T07:04:33.649Z,101536.36
2019-01-31T07:06:59.753Z,101542.91
2019-01-31T07:09:25.681Z,101550.69
2019-01-31T07:11:51.601Z,101554.67
2019-01-31T07:14:17.573Z,101555.20
2019-01-31T07:16:43.493Z,101557.50
2019-01-31T07:19:09.494Z,101555.00
2019-01-31T07:21:35.645Z,101553.02
2019-01-31T07:24:01.822Z,101562.14
2019-01-31T07:26:27.839Z,101563.55
2019-01-31T07:28:53.852Z,101555.02
2019-01-31T07:31:20.000Z,101562.86
2019-01-31T07:33:45.904Z,101563.02
2019-01-31T07:36:11.951Z,101565.66
2019-01-31T07:38:37.891Z,101563.54
2019-01-31T07:41:04.170Z,101568.35
2019-01-31T07:43:30.188Z,101573.63
2019-01-31T07:45:56.227Z,101570.69
2019-01-31T07:48:22.273Z,101574.60
2019-01-31T07:50:48.292Z,101578.06
2019-01-31T07:53:14.329Z,101576.45
2019-01-31T07:55:40.488Z,101579.88
2019-01-31T07:58:06.540Z,101575.34
2019-01-31T08:00:32.893Z,101580.62
2019-01-31T08:02:59.354Z,101583.32
2019-01-31T08:05:25.375Z,101579.16
2019-01-31T08:07:53.517Z,101579.70
2019-01-31T08:10:34.938Z,101578.48
2019-01-31T08:13:01.059Z,101587.55
2019-01-31T08:15:27.149Z,101589.36
2019-01-31T08:17:53.094Z,101601.83
2019-01-31T08:20:19.314Z,101601.00
2019-01-31T08:22:45.369Z,101601.06
2019-01-31T08:25:16.654Z,101596.05
2019-01-31T08:27:42.730Z,101600.02
2019-01-31T08:30:21.707Z,101609.22
2019-01-31T08:32:47.726Z,101602.17
2019-01-31T08:35:14.340Z,101597.14
2019-01-31T08:37:40.372Z,101608.42
2019-01-31T08:40:10.094Z,101607.75
2019-01-31T08:42:36.114Z,101606.58
2019-01-31T08:45:04.339Z,101611.40
2019-01-31T08:47:30.254Z,101611.08
2019-01-31T08:49:56.171Z,101617.19
2019-01-31T08:52:22.295Z,101618.13
2019-01-31T08:54:48.194Z,101617.36
2019-01-31T08:57:14.236Z,101623.03
2019-01-31T08:59:40.328Z,101629.97
2019-01-31T09:02:06.622Z,101628.37
2019-01-31T09:04:32.765Z,101631.89
2019-01-31T09:06:58.795Z,101638.11
2019-01-31T09:09:24.887Z,101639.92
2019-01-31T09:11:50.820Z,101640.47
2019-01-31T09:14:17.047Z,101635.00
2019-01-31T09:16:43.117Z,101587.85
2019-01-31T09:19:09.137Z,101637.36
2019-01-31T09:21:37.058Z,101645.15
2019-01-31T09:24:26.402Z,101644.31
2019-01-31T09:27:14.027Z,101642.69
2019-01-31T09:30:07.998Z,101647.92
2019-01-31T09:32:49.658Z,101643.84
2019-01-31T09:35:19.373Z,101643.00
2019-01-31T09:37:57.871Z,101646.09
2019-01-31T09:40:47.331Z,101650.11
2019-01-31T09:43:35.308Z,101639.42
2019-01-31T09:46:17.116Z,101654.61
2019-01-31T09:48:46.843Z,101643.58
2019-01-31T09:51:40.847Z,101643.70
2019-01-31T09:54:10.576Z,101648.57
2019-01-31T09:56:52.204Z,101657.65
2019-01-31T09:59:27.885Z,101652.61
2019-01-31T10:01:57.617Z,101653.13
2019-01-31T10:04:27.587Z,101653.23
2019-01-31T10:07:14.993Z,101655.92
2019-01-31T10:09:44.729Z,101658.66
2019-01-31T10:12:38.273Z,101663.98
2019-01-31T10:15:25.996Z,101664.49
2019-01-31T10:17:55.804Z,101672.34
2019-01-31T10:20:46.752Z,101680.59
2019-01-31T10:23:33.969Z,101680.25
2019-01-31T10:26:29.342Z,101680.36
2019-01-31T10:29:22.705Z,101683.89
2019-01-31T10:31:52.445Z,101686.14
2019-01-31T10:34:38.630Z,101681.09
2019-01-31T10:37:30.821Z,101696.28
2019-01-31T10:40:29.098Z,101689.55
2019-01-31T10:43:24.459Z,101699.14
2019-01-31T10:46:12.169Z,101695.33
2019-01-31T10:49:03.196Z,101695.44
2019-01-31T10:51:41.928Z,101698.56
2019-01-31T10:54:14.423Z,101696.03
2019-01-31T10:56:59.280Z,101708.16
2019-01-31T10:59:47.169Z,101704.34
2019-01-31T11:02:31.934Z,101706.58
2019-01-31T11:05:22.686Z,101698.45
2019-01-31T11:07:55.193Z,101708.03
2019-01-31T11:10:39.845Z,101710.29
2019-01-31T11:13:24.776Z,101710.88
2019-01-31T11:16:12.742Z,101711.88
2019-01-31T11:19:11.769Z,101709.35
2019-01-31T11:22:04.179Z,101717.27
2019-01-31T11:24:45.759Z,101715.91
2019-01-31T11:27:24.427Z,101718.12
2019-01-31T11:30:16.842Z,101722.94
2019-01-31T11:32:46.696Z,101722.58
2019-01-31T11:35:49.680Z,101723.49
2019-01-31T11:38:22.143Z,101714.11
2019-01-31T11:40:58.432Z,101728.92
2019-01-31T11:43:36.738Z,101731.22
2019-01-31T11:46:12.291Z,101724.91
2019-01-31T11:48:47.798Z,101728.49
2019-01-31T11:51:26.692Z,101725.61
2019-01-31T11:54:12.892Z,101724.87
2019-01-31T11:56:45.864Z,101720.22
2019-01-31T11:59:11.824Z,101720.31
2019-01-31T12:01:38.031Z,101723.00
2019-01-31T12:04:05.690Z,101719.18
2019-01-31T12:06:31.973Z,101718.93
2019-01-31T12:08:58.024Z,101722.95
2019-01-31T12:11:24.134Z,101720.96
2019-01-31T12:13:50.282Z,101726.19
2019-01-31T12:16:16.420Z,101723.65
2019-01-31T12:18:42.715Z,101728.03
2019-01-31T12:21:08.723Z,101727.72
2019-01-31T12:23:34.752Z,101733.36
2019-01-31T12:26:00.936Z,101730.88
2019-01-31T12:28:27.051Z,101725.35
2019-01-31T12:30:53.015Z,101727.55
2019-01-31T12:33:19.056Z,101731.58
2019-01-31T12:35:44.992Z,101735.99
2019-01-31T12:38:11.218Z,101739.62
2019-01-31T12:40:37.332Z,101733.25
2019-01-31T12:43:03.549Z,101738.08
2019-01-31T12:45:29.559Z,101740.77
2019-01-31T12:47:55.668Z,101736.53
2019-01-31T12:50:23.115Z,101751.30
2019-01-31T12:52:49.321Z,101751.30
2019-01-31T12:55:15.361Z,101761.89
2019-01-31T12:57:41.535Z,101761.89
2019-01-31T13:00:17.434Z,101759.40
2019-01-31T13:02:43.494Z,101756.05
2019-01-31T13:05:10.544Z,101764.31
2019-01-31T13:07:38.051Z,101759.63
2019-01-31T13:10:07.767Z,101768.28
2019-01-31T13:12:34.170Z,101714.00
2019-01-31T13:15:00.430Z,101714.00
2019-01-31T13:17:26.549Z,101769.37
2019-01-31T13:19:52.865Z,101768.52
2019-01-31T13:22:19.034Z,101774.33
2019-01-31T13:24:45.060Z,101774.33
2019-01-31T13:27:11.212Z,101773.53
2019-01-31T13:29:37.112Z,101777.05
2019-01-31T13:32:03.890Z,101779.20
2019-01-31T13:34:29.859Z,101783.62
2019-01-31T13:36:55.794Z,101784.16
2019-01-31T13:39:22.050Z,101793.67
2019-01-31T13:41:48.079Z,101791.66
2019-01-31T13:44:14.109Z,101789.13
2019-01-31T13:46:40.181Z,101789.13
2019-01-31T13:49:06.310Z,101796.48
2019-01-31T13:51:32.366Z,101793.50
2019-01-31T13:53:58.918Z,101795.38
2019-01-31T13:56:25.045Z,101795.38
2019-01-31T13:58:51.065Z,101792.83
2019-01-31T14:01:17.096Z,101793.64
2019-01-31T14:03:43.221Z,101793.64
2019-01-31T14:06:09.164Z,101793.28
2019-01-31T14:08:35.337Z,101793.28
2019-01-31T14:11:01.391Z,101789.80
2019-01-31T14:13:27.428Z,101790.73
2019-01-31T14:15:54.002Z,101800.69
2019-01-31T14:18:19.950Z,101796.85
2019-01-31T14:20:46.065Z,101796.85
2019-01-31T14:23:11.971Z,101809.05
2019-01-31T14:25:38.097Z,101799.44
2019-01-31T14:28:04.519Z,101798.64
2019-01-31T14:30:35.533Z,101809.50
2019-01-31T14:33:01.960Z,101795.16
2019-01-31T14:35:28.556Z,101803.95
2019-01-31T14:37:54.520Z,101803.95
2019-01-31T14:40:20.649Z,101809.14
2019-01-31T14:42:46.794Z,101827.31
2019-01-31T14:45:15.643Z,101813.47
2019-01-31T14:47:41.769Z,101813.47
2019-01-31T14:50:17.113Z,101824.41
2019-01-31T14:52:43.194Z,101830.88
2019-01-31T14:55:10.324Z,101818.83
2019-01-31T14:57:36.764Z,101830.53
2019-01-31T15:00:09.350Z,101819.41
2019-01-31T15:02:35.367Z,101819.91
2019-01-31T15:05:01.486Z,101819.91
2019-01-31T15:07:27.632Z,101826.02
2019-01-31T15:09:53.929Z,101826.02
2019-01-31T15:12:20.067Z,101826.37
2019-01-31T15:14:45.994Z,101789.30
2019-01-31T15:17:11.935Z,101839.91
2019-01-31T15:19:37.834Z,101835.58
2019-01-31T15:22:03.980Z,101835.67
2019-01-31T15:24:29.903Z,101838.75
2019-01-31T15:26:55.972Z,101832.99
2019-01-31T15:29:22.014Z,101843.45
2019-01-31T15:31:48.109Z,101851.70
2019-01-31T15:34:14.157Z,101857.33
2019-01-31T15:36:40.213Z,101855.58
2019-01-31T15:39:06.651Z,101856.03
2019-01-31T15:41:32.667Z,101864.22
2019-01-31T15:43:58.820Z,101858.94
2019-01-31T15:46:25.041Z,101847.23
2019-01-31T15:48:51.118Z,101864.34
2019-01-31T15:51:17.162Z,101857.87
2019-01-31T15:53:43.273Z,101857.87
2019-01-31T15:56:09.409Z,101834.81
2019-01-31T15:58:35.363Z,101834.81
2019-01-31T16:01:01.494Z,101870.87
2019-01-31T16:03:27.575Z,101861.80
2019-01-31T16:05:53.696Z,101863.05
2019-01-31T16:08:19.832Z,101866.94
2019-01-31T16:10:46.136Z,101866.94
2019-01-31T16:13:12.340Z,101870.83
2019-01-31T16:15:38.983Z,101870.83
2019-01-31T16:18:07.545Z,101869.12
2019-01-31T16:20:34.770Z,101880.34
2019-01-31T16:23:01.000Z,101880.34
2019-01-31T16:25:27.068Z,101892.80
2019-01-31T16:27:53.082Z,101892.80
2019-01-31T16:30:20.189Z,101891.52
2019-01-31T16:32:46.322Z,101898.13
2019-01-31T16:35:15.190Z,101898.13
2019-01-31T16:37:41.487Z,101892.98
2019-01-31T16:40:13.245Z,101899.02
2019-01-31T16:42:39.346Z,101902.50
2019-01-31T16:45:08.418Z,101895.89
2019-01-31T16:47:34.414Z,101895.89
2019-01-31T16:50:00.428Z,101899.91
2019-01-31T16:52:26.468Z,101894.28
2019-01-31T16:54:52.592Z,101899.56
2019-01-31T16:57:18.642Z,101901.74
2019-01-31T16:59:44.595Z,101901.74
2019-01-31T17:02:10.598Z,101908.22
2019-01-31T17:04:36.730Z,101904.83
2019-01-31T17:07:02.994Z,101902.19
2019-01-31T17:09:29.145Z,101905.77
2019-01-31T17:11:55.251Z,101904.47
2019-01-31T17:14:21.372Z,101908.80
2019-01-31T17:16:47.422Z,101908.80
2019-01-31T17:19:13.626Z,101904.06
2019-01-31T17:21:39.790Z,101910.86
2019-01-31T17:24:05.954Z,101910.86
2019-01-31T17:26:31.960Z,101921.67
2019-01-31T17:28:57.880Z,101917.34
2019-01-31T17:31:23.893Z,101922.02
2019-01-31T17:33:49.825Z,101920.15
2019-01-31T17:36:15.894Z,101920.15
2019-01-31T17:38:41.787Z,101924.97
2019-01-31T17:41:08.027Z,101924.97
2019-01-31T17:43:34.042Z,101937.09
2019-01-31T17:46:00.399Z,101932.70
2019-01-31T17:48:26.591Z,101934.84
2019-01-31T17:50:52.518Z,101935.16
2019-01-31T17:53:18.520Z,101935.16
2019-01-31T17:55:44.591Z,101939.04
2019-01-31T17:58:10.698Z,101938.60
2019-01-31T18:00:40.433Z,101946.81
2019-01-31T18:03:07.473Z,101941.15
2019-01-31T18:05:33.607Z,101949.91
2019-01-31T18:07:59.753Z,101949.91
2019-01-31T18:10:25.964Z,101955.45
2019-01-31T18:12:52.138Z,101941.73
2019-01-31T18:15:18.171Z,101963.22
2019-01-31T18:17:44.325Z,101958.48
2019-01-31T18:20:21.738Z,101966.25
2019-01-31T18:22:47.790Z,101966.25
2019-01-31T18:25:14.108Z,101973.18
2019-01-31T18:27:40.050Z,101973.18
2019-01-31T18:30:09.758Z,101977.86
2019-01-31T18:32:35.904Z,101972.05
2019-01-31T18:35:02.925Z,101964.09
2019-01-31T18:37:28.987Z,101964.09
2019-01-31T18:39:55.005Z,101980.57
2019-01-31T18:42:20.906Z,101984.45
2019-01-31T18:44:46.868Z,101984.45
2019-01-31T18:47:13.022Z,101987.59
2019-01-31T18:49:39.065Z,101987.34
2019-01-31T18:52:05.168Z,101987.34
2019-01-31T18:54:31.136Z,101988.27
2019-01-31T18:56:57.074Z,101980.11
2019-01-31T18:59:23.075Z,101986.98
2019-01-31T19:01:49.024Z,101995.95
2019-01-31T19:04:15.149Z,101991.12
2019-01-31T19:06:41.171Z,101996.22
2019-01-31T19:09:08.506Z,101991.03
2019-01-31T19:11:34.561Z,101989.19
2019-01-31T19:14:00.768Z,102008.62
2019-01-31T19:16:26.864Z,102008.62
2019-01-31T19:18:52.822Z,102010.31
2019-01-31T19:21:18.956Z,102007.67
2019-01-31T19:23:44.998Z,102010.31
2019-01-31T19:26:11.221Z,102023.67
2019-01-31T19:28:37.226Z,102023.67
2019-01-31T19:31:03.455Z,102022.81
2019-01-31T19:33:29.493Z,102018.98
2019-01-31T19:35:55.554Z,102019.03
2019-01-31T19:38:21.533Z,102037.67
2019-01-31T19:40:47.579Z,102037.67
2019-01-31T19:43:13.620Z,102044.45
2019-01-31T19:45:44.670Z,102044.45
2019-01-31T19:48:11.330Z,101976.16
2019-01-31T19:50:37.591Z,102046.53
2019-01-31T19:53:04.186Z,102053.52
2019-01-31T19:55:30.306Z,102054.11
2019-01-31T19:57:56.382Z,102001.49
2019-01-31T20:00:24.372Z,102001.49
2019-01-31T20:02:50.739Z,102069.14
2019-01-31T20:05:17.161Z,102074.94
2019-01-31T20:07:43.556Z,102074.94
2019-01-31T20:10:13.183Z,102077.58
2019-01-31T20:12:39.097Z,102081.56
2019-01-31T20:15:08.516Z,102081.56
2019-01-31T20:17:34.664Z,102087.84
2019-01-31T20:20:00.749Z,102088.19
2019-01-31T20:22:26.798Z,102093.80
2019-01-31T20:24:52.823Z,102098.50
2019-01-31T20:27:18.970Z,102098.50
2019-01-31T20:29:45.100Z,102101.52
2019-01-31T20:32:11.212Z,102092.45
2019-01-31T20:34:37.962Z,102096.01
2019-01-31T20:37:04.206Z,102095.91
2019-01-31T20:39:30.367Z,102101.03
2019-01-31T20:41:56.301Z,102101.03
2019-01-31T20:44:22.246Z,102105.81
2019-01-31T20:46:48.379Z,102108.45
2019-01-31T20:49:14.415Z,102111.55
2019-01-31T20:51:40.320Z,102111.55
2019-01-31T20:54:06.239Z,102109.86
2019-01-31T20:56:33.600Z,102108.16
2019-01-31T20:58:59.605Z,102109.64
2019-01-31T21:01:25.674Z,102115.91
2019-01-31T21:03:51.697Z,102119.31
2019-01-31T21:06:17.719Z,102118.69
2019-01-31T21:08:43.659Z,102118.69
2019-01-31T21:11:09.797Z,102116.83
2019-01-31T21:13:35.761Z,102129.05
2019-01-31T21:16:02.035Z,102129.05
2019-01-31T21:18:28.183Z,102130.42
2019-01-31T21:20:54.318Z,102138.14
2019-01-31T21:23:20.232Z,102130.86
2019-01-31T21:25:46.388Z,102130.86
2019-01-31T21:28:12.487Z,102135.20
2019-01-31T21:30:38.704Z,102135.55
2019-01-31T21:33:05.110Z,102146.02
2019-01-31T21:35:31.259Z,102153.44
2019-01-31T21:37:57.593Z,102153.44
2019-01-31T21:40:25.763Z,102155.19
2019-01-31T21:42:51.889Z,102155.24
2019-01-31T21:45:19.522Z,102158.33
2019-01-31T21:47:45.541Z,102160.08
2019-01-31T21:50:14.401Z,102169.54
2019-01-31T21:52:40.523Z,102177.92
2019-01-31T21:55:07.822Z,102177.92
2019-01-31T21:57:33.991Z,102182.27
2019-01-31T22:00:00.002Z,102182.27
2019-01-31T22:02:26.007Z,102187.09
2019-01-31T22:04:52.194Z,102182.81
2019-01-31T22:07:18.317Z,102183.67
2019-01-31T22:09:44.255Z,102187.56
2019-01-31T22:12:10.362Z,102187.56
2019-01-31T22:14:36.297Z,102195.27
2019-01-31T22:17:13.866Z,102195.27
2019-01-31T22:19:30.315Z,102192.63
2019-01-31T22:21:56.272Z,102148.73
2019-01-31T22:24:22.164Z,102216.09
2019-01-31T22:26:48.113Z,102205.23
2019-01-31T22:29:14.053Z,102205.23
2019-01-31T22:31:39.997Z,102214.36
2019-01-31T22:34:06.129Z,102208.38
2019-01-31T22:36:32.145Z,102214.91
2019-01-31T22:38:58.176Z,102217.49
2019-01-31T22:41:24.207Z,102208.38
2019-01-31T22:43:50.223Z,102208.38
2019-01-31T22:46:16.390Z,102219.25
2019-01-31T22:48:42.390Z,102219.25
2019-01-31T22:51:08.445Z,102212.77
2019-01-31T22:53:34.482Z,102218.84
2019-01-31T22:56:00.506Z,102218.84
2019-01-31T22:58:26.567Z,102226.55
2019-01-31T23:01:10.107Z,102225.26
2019-01-31T23:03:36.380Z,102228.20
2019-01-31T23:06:03.417Z,102229.83
2019-01-31T23:08:29.574Z,102224.20
2019-01-31T23:10:55.722Z,102224.20
2019-01-31T23:13:21.772Z,102227.73
2019-01-31T23:15:47.799Z,102220.59
2019-01-31T23:18:14.110Z,102225.27
2019-01-31T23:20:40.684Z,102229.66
2019-01-31T23:23:06.792Z,102229.66
2019-01-31T23:25:39.658Z,102229.20
2019-01-31T23:28:00.649Z,102229.20
2019-01-31T23:30:26.804Z,102225.27
2019-01-31T23:32:52.847Z,102230.44
2019-01-31T23:35:18.977Z,102230.44
2019-01-31T23:37:45.130Z,102231.16
2019-01-31T23:40:12.773Z,102231.61
2019-01-31T23:42:38.792Z,102233.74
2019-01-31T23:45:11.469Z,102236.33
2019-01-31T23:47:47.653Z,102236.33
2019-01-31T23:50:09.962Z,102222.84
2019-01-31T23:52:36.113Z,102242.42
2019-01-31T23:55:03.361Z,102235.84
2019-01-31T23:57:29.384Z,102235.84
2019-01-31T23:59:55.433Z,102231.84
